Time;durP1;ratioP1;P1;durP2;ratioP2;P2;SDS_P1;SDS_P2;PMS_P1;PMS_P2;Temp;Humidity;BMP_temperature;BMP_pressure;BME280_temperature;BME280_humidity;BME280_pressure;Samples;Min_cycle;Max_cycle;Signal;HPM_P1;HPM_P2
2022/10/13 00:01:38;;;;;;;16.67;8.30;;;;;;;5.51;100.00;100595.64;1790929;79;21020;-67
2022/10/13 00:04:04;;;;;;;18.98;8.60;;;;;;;5.51;100.00;100588.88;1799971;79;21025;-68
2022/10/13 00:06:32;;;;;;;16.75;8.43;;;;;;;5.50;100.00;100599.37;1807638;77;21090;-67
2022/10/13 00:08:59;;;;;;;16.23;8.58;;;;;;;5.49;100.00;100601.76;1800146;78;21117;-68
2022/10/13 00:11:28;;;;;;;18.25;7.30;;;;;;;5.50;100.00;100598.54;1788372;79;21686;-68
2022/10/13 00:14:00;;;;;;;14.25;7.50;;;;;;;5.49;100.00;100600.95;1788219;80;21049;-68
2022/10/13 00:16:29;;;;;;;14.58;7.58;;;;;;;5.46;100.00;100606.25;1788608;80;21073;-68
2022/10/13 00:18:56;;;;;;;17.05;8.40;;;;;;;5.41;100.00;100602.05;1791178;79;21113;-68
2022/10/13 00:21:24;;;;;;;14.55;7.40;;;;;;;5.41;100.00;100597.98;1789207;80;22333;-68
2022/10/13 00:23:52;;;;;;;17.70;7.80;;;;;;;5.48;100.00;100599.30;1772634;79;21596;-68
2022/10/13 00:26:20;;;;;;;16.00;8.68;;;;;;;5.53;100.00;100600.80;1779578;78;21093;-68
2022/10/13 00:28:46;;;;;;;18.67;8.95;;;;;;;5.55;100.00;100603.30;1776662;79;21361;-68
2022/10/13 00:31:26;;;;;;;17.62;8.00;;;;;;;5.50;100.00;100602.59;1769068;79;21155;-69
2022/10/13 00:33:53;;;;;;;13.40;7.45;;;;;;;5.51;100.00;100606.44;1767185;79;21069;-68
2022/10/13 00:36:22;;;;;;;17.12;8.15;;;;;;;5.57;100.00;100602.02;1761966;81;21105;-68
2022/10/13 00:38:48;;;;;;;13.10;7.58;;;;;;;5.61;100.00;100607.30;1740835;81;21662;-68
2022/10/13 00:41:16;;;;;;;16.45;8.50;;;;;;;5.63;100.00;100603.88;1748670;81;21081;-69
2022/10/13 00:43:51;;;;;;;15.15;8.20;;;;;;;5.64;100.00;100604.67;1749278;81;21533;-68
2022/10/13 00:46:21;;;;;;;14.25;7.60;;;;;;;5.62;100.00;100608.97;1741066;81;21101;-68
2022/10/13 00:48:49;;;;;;;14.38;7.85;;;;;;;5.62;100.00;100604.08;1728907;83;20984;-68
2022/10/13 00:51:19;;;;;;;15.65;7.40;;;;;;;5.67;100.00;100606.97;1728075;81;21035;-68
2022/10/13 00:53:47;;;;;;;15.85;7.28;;;;;;;5.70;100.00;100600.60;1739901;82;21525;-69
2022/10/13 00:56:16;;;;;;;15.43;8.23;;;;;;;5.73;100.00;100600.68;1740818;81;21085;-69
2022/10/13 00:58:43;;;;;;;16.87;7.95;;;;;;;5.70;100.00;100601.95;1745420;81;21053;-69
2022/10/13 01:01:09;;;;;;;13.62;7.28;;;;;;;5.69;100.00;100596.76;1739735;81;21468;-68
2022/10/13 01:03:36;;;;;;;16.60;7.58;;;;;;;5.71;100.00;100598.70;1742280;81;21091;-69
2022/10/13 01:06:03;;;;;;;;;;;;;;;5.77;100.00;100599.20;1740469;81;21484;-68
2022/10/13 01:08:30;;;;;;;31.95;18.20;;;;;;;5.82;100.00;100595.30;1707293;82;20119;-68
2022/10/13 01:11:27;;;;;;;42.45;23.87;;;;;;;5.78;100.00;100590.86;1747472;81;21024;-69
2022/10/13 01:14:36;;;;;;;38.17;22.70;;;;;;;5.71;100.00;100597.34;1758435;81;21871;-69
2022/10/13 01:17:20;;;;;;;34.30;19.52;;;;;;;5.57;100.00;100595.27;1743146;81;21081;-69
2022/10/13 01:20:13;;;;;;;26.25;14.70;;;;;;;5.48;100.00;100592.02;1734385;82;21097;-69
2022/10/13 01:23:36;;;;;;;33.02;17.27;;;;;;;5.48;100.00;100589.32;1742815;81;21100;-69
2022/10/13 01:26:29;;;;;;;24.72;13.78;;;;;;;5.53;100.00;100593.25;1735104;81;21006;-69
2022/10/13 01:29:30;;;;;;;22.30;13.58;;;;;;;5.50;100.00;100589.09;1739720;81;21148;-69
2022/10/13 01:32:11;;;;;;;22.00;11.43;;;;;;;5.46;100.00;100591.91;1742625;81;21105;-68
2022/10/13 01:34:51;;;;;;;20.35;11.57;;;;;;;5.41;100.00;100593.94;1767564;80;21118;-69
2022/10/13 01:37:48;;;;;;;29.77;17.37;;;;;;;5.36;100.00;100595.62;1773516;80;21097;-69
2022/10/13 01:40:40;;;;;;;31.23;19.30;;;;;;;5.36;100.00;100591.56;1766550;80;21021;-69
2022/10/13 01:43:16;;;;;;;30.55;15.10;;;;;;;5.41;100.00;100591.76;1799916;79;21536;-69
2022/10/13 01:46:03;;;;;;;29.70;16.75;;;;;;;5.46;100.00;100590.56;1784596;80;21015;-69
2022/10/13 01:48:31;;;;;;;25.30;14.07;;;;;;;5.45;100.00;100585.72;1741333;80;21520;-69
2022/10/13 01:50:58;;;;;;;20.17;11.55;;;;;;;5.42;100.00;100583.97;1778484;80;20986;-69
2022/10/13 01:53:26;;;;;;;26.62;13.30;;;;;;;5.39;100.00;100597.36;1756330;80;21073;-69
2022/10/13 01:55:56;;;;;;;27.73;12.82;;;;;;;5.43;100.00;100597.23;1762891;80;21026;-69
2022/10/13 01:58:24;;;;;;;19.90;9.70;;;;;;;5.53;100.00;100586.50;1782391;79;21034;-69
2022/10/13 02:01:09;;;;;;;17.60;9.23;;;;;;;5.63;100.00;100593.07;1751375;80;21025;-69
2022/10/13 02:04:22;;;;;;;17.42;9.50;;;;;;;5.68;100.00;100590.52;1705576;82;21065;-69
2022/10/13 02:07:18;;;;;;;19.23;10.38;;;;;;;5.70;100.00;100582.21;1757958;80;21581;-69
2022/10/13 02:10:20;;;;;;;18.87;9.80;;;;;;;5.69;100.00;100586.78;1794385;79;21046;-69
2022/10/13 02:12:58;;;;;;;17.92;9.28;;;;;;;5.69;100.00;100585.44;1769723;79;21080;-68
2022/10/13 02:15:40;;;;;;;20.70;9.18;;;;;;;5.74;100.00;100584.23;1812761;79;21059;-69
2022/10/13 02:18:12;;;;;;;18.52;8.83;;;;;;;5.78;100.00;100585.45;1745364;80;21635;-69
2022/10/13 02:20:40;;;;;;;15.70;8.30;;;;;;;5.81;100.00;100590.96;1758334;80;21524;-69
2022/10/13 02:23:12;;;;;;;14.30;8.23;;;;;;;5.78;100.00;100585.45;1782937;79;21078;-69
2022/10/13 02:25:38;;;;;;;14.58;7.75;;;;;;;5.79;100.00;100587.63;1782703;79;20985;-69
2022/10/13 02:28:07;;;;;;;14.75;7.42;;;;;;;5.80;100.00;100594.18;1787391;79;21599;-69
2022/10/13 02:30:35;;;;;;;15.48;7.33;;;;;;;5.89;100.00;100589.34;1742224;80;21062;-69
2022/10/13 02:33:02;;;;;;;14.25;6.75;;;;;;;5.97;100.00;100599.89;1731297;81;21496;-69
2022/10/13 02:35:31;;;;;;;13.95;6.72;;;;;;;5.98;100.00;100596.98;1752921;80;21074;-69
2022/10/13 02:38:00;;;;;;;14.30;6.45;;;;;;;5.93;100.00;100594.09;1785701;80;21080;-69
2022/10/13 02:40:26;;;;;;;20.30;8.90;;;;;;;5.91;100.00;100586.75;1791055;79;21555;-68
2022/10/13 02:42:54;;;;;;;14.05;7.22;;;;;;;5.96;100.00;100593.66;1736536;81;21101;-69
2022/10/13 02:45:21;;;;;;;14.80;7.42;;;;;;;6.06;100.00;100599.10;1786085;80;21111;-69
2022/10/13 02:47:48;;;;;;;19.90;10.50;;;;;;;6.10;100.00;100590.82;1787460;79;21581;-69
2022/10/13 02:50:14;;;;;;;;;;;;;;;6.12;100.00;100590.09;1788274;79;21070;-69
2022/10/13 02:52:41;;;;;;;23.60;13.35;;;;;;;6.12;100.00;100581.47;1788118;79;20151;-69
2022/10/13 02:55:08;;;;;;;25.57;14.58;;;;;;;6.06;100.00;100585.03;1757120;81;21029;-69
2022/10/13 02:57:36;;;;;;;31.25;16.25;;;;;;;6.11;100.00;100581.67;1743492;81;21100;-69
2022/10/13 03:00:04;;;;;;;32.67;17.02;;;;;;;6.17;100.00;100578.91;1762306;81;21043;-69
2022/10/13 03:02:31;;;;;;;24.27;12.35;;;;;;;6.26;100.00;100576.75;1756796;81;21574;-69
2022/10/13 03:04:59;;;;;;;20.45;10.15;;;;;;;6.25;100.00;100578.63;1788191;80;21473;-69
2022/10/13 03:07:25;;;;;;;20.82;11.48;;;;;;;6.18;100.00;100581.92;1784320;79;21163;-70
2022/10/13 03:09:53;;;;;;;18.30;10.63;;;;;;;6.15;100.00;100582.37;1806734;79;21089;-69
2022/10/13 03:12:20;;;;;;;19.77;10.18;;;;;;;6.18;100.00;100581.92;1784847;79;21059;-69
2022/10/13 03:14:46;;;;;;;15.28;8.43;;;;;;;6.25;100.00;100579.98;1788449;79;21043;-69
2022/10/13 03:17:13;;;;;;;19.98;9.73;;;;;;;6.32;100.00;100580.73;1771309;79;21760;-69
2022/10/13 03:19:39;;;;;;;21.27;10.35;;;;;;;6.33;100.00;100583.75;1787249;79;21051;-69
2022/10/13 03:22:08;;;;;;;13.80;7.78;;;;;;;6.25;100.00;100588.09;1786458;79;21107;-69
2022/10/13 03:24:34;;;;;;;;;;;;;;;6.16;100.00;100583.20;1763920;81;21005;-69
2022/10/13 03:27:00;;;;;;;20.17;8.68;;;;;;;6.15;100.00;100597.23;1774222;78;20090;-71
2022/10/13 03:29:26;;;;;;;16.30;7.67;;;;;;;6.12;100.00;100592.28;1768098;80;21498;-70
2022/10/13 03:31:53;;;;;;;16.85;7.50;;;;;;;6.16;100.00;100586.73;1787967;79;21098;-70
2022/10/13 03:34:21;;;;;;;16.90;7.28;;;;;;;6.20;100.00;100584.41;1791819;79;21718;-70
2022/10/13 03:36:48;;;;;;;13.80;7.30;;;;;;;6.17;100.00;100584.31;1759594;80;21160;-70
2022/10/13 03:39:14;;;;;;;13.55;6.92;;;;;;;6.11;100.00;100581.16;1764030;80;21447;-70
2022/10/13 03:41:40;;;;;;;;;;;;;;;6.13;100.00;100580.95;1764686;80;21010;-70
2022/10/13 03:44:07;;;;;;;19.35;7.55;;;;;;;6.16;100.00;100586.73;1763002;80;20443;-70
2022/10/13 03:46:33;;;;;;;;;;;;;;;6.15;100.00;100589.13;1758496;80;21020;-70
2022/10/13 03:49:00;;;;;;;16.35;6.37;;;;;;;6.19;100.00;100587.64;1758777;80;20146;-70
2022/10/13 03:51:28;;;;;;;15.20;6.53;;;;;;;6.18;100.00;100580.56;1756639;80;21077;-70
2022/10/13 03:53:54;;;;;;;;;;;;;;;6.21;100.00;100590.93;1765784;80;21715;-70
2022/10/13 03:56:24;;;;;;;15.48;6.40;;;;;;;6.19;100.00;100587.64;1766719;80;20271;-70
2022/10/13 03:58:54;;;;;;;10.78;6.00;;;;;;;6.10;100.00;100587.60;1764279;80;21078;-70
2022/10/13 04:01:22;;;;;;;14.40;6.75;;;;;;;6.15;100.00;100583.72;1787664;79;21091;-70
2022/10/13 04:03:50;;;;;;;15.80;6.80;;;;;;;6.25;100.00;100584.55;1788195;79;21557;-69
2022/10/13 04:06:17;;;;;;;18.50;7.12;;;;;;;6.31;100.00;100583.66;1788721;80;21093;-70
2022/10/13 04:08:45;;;;;;;15.40;7.17;;;;;;;6.35;100.00;100579.45;1791162;79;21005;-70
2022/10/13 04:11:14;;;;;;;20.00;8.65;;;;;;;6.37;100.00;100581.43;1767544;79;21715;-69
2022/10/13 04:13:42;;;;;;;17.20;8.23;;;;;;;6.38;100.00;100589.82;1787664;79;21067;-70
2022/10/13 04:16:19;;;;;;;14.07;7.22;;;;;;;6.34;100.00;100592.70;1781516;79;21528;-70
2022/10/13 04:18:51;;;;;;;;;;;;;;;6.33;100.00;100601.85;1782481;79;21035;-70
2022/10/13 04:21:18;;;;;;;13.75;6.87;;;;;;;6.31;100.00;100605.28;1758037;80;20096;-70
2022/10/13 04:23:46;;;;;;;15.55;8.13;;;;;;;6.26;100.00;100600.56;1760816;80;20966;-69
2022/10/13 04:26:19;;;;;;;18.42;8.35;;;;;;;6.31;100.00;100599.36;1767851;80;21156;-70
2022/10/13 04:28:46;;;;;;;16.95;8.38;;;;;;;6.34;100.00;100596.75;1780689;80;21006;-70
2022/10/13 04:31:13;;;;;;;19.92;8.53;;;;;;;6.36;100.00;100603.59;1777059;80;21410;-70
2022/10/13 04:33:39;;;;;;;;;;;;;;;6.42;100.00;100588.33;1762792;80;21485;-70
2022/10/13 04:36:08;;;;;;;18.12;9.20;;;;;;;6.51;100.00;100589.70;1757648;80;20144;-70
2022/10/13 04:38:34;;;;;;;19.85;8.58;;;;;;;6.52;100.00;100586.48;1795291;79;21004;-70
2022/10/13 04:41:02;;;;;;;;;;;;;;;6.55;100.00;100592.27;1793400;79;21686;-69
2022/10/13 04:43:30;;;;;;;18.80;8.10;;;;;;;6.49;100.00;100595.33;1761856;80;20170;-69
2022/10/13 04:46:08;;;;;;;15.85;6.87;;;;;;;6.36;100.00;100609.52;1790590;79;21090;-69
2022/10/13 04:48:35;;;;;;;14.38;7.53;;;;;;;6.36;100.00;100608.16;1778924;79;20992;-70
2022/10/13 04:51:06;;;;;;;14.23;7.12;;;;;;;6.41;100.00;100611.84;1782835;79;21604;-70
2022/10/13 04:53:33;;;;;;;12.13;7.00;;;;;;;6.49;100.00;100610.20;1783974;79;21008;-70
2022/10/13 04:56:04;;;;;;;;;;;;;;;6.54;100.00;100608.70;1799758;79;21071;-70
2022/10/13 04:58:31;;;;;;;16.30;7.30;;;;;;;6.56;100.00;100612.84;1758075;80;20561;-69
2022/10/13 05:01:00;;;;;;;13.28;7.17;;;;;;;6.50;100.00;100610.52;1757430;80;21079;-70
2022/10/13 05:03:27;;;;;;;12.40;6.83;;;;;;;6.60;100.00;100605.09;1807263;79;21015;-70
2022/10/13 05:05:53;;;;;;;20.48;8.58;;;;;;;6.72;100.00;100608.72;1783498;79;21030;-69
2022/10/13 05:08:21;;;;;;;16.65;7.85;;;;;;;6.82;100.00;100607.66;1784499;79;21091;-69
2022/10/13 05:11:01;;;;;;;15.40;7.80;;;;;;;6.84;100.00;100610.95;1759320;80;21374;-68
2022/10/13 05:13:29;;;;;;;12.00;7.05;;;;;;;6.78;100.00;100618.11;1786823;80;21043;-69
2022/10/13 05:15:57;;;;;;;15.23;7.70;;;;;;;6.72;100.00;100614.13;1786008;79;21128;-69
2022/10/13 05:18:25;;;;;;;14.50;7.30;;;;;;;6.73;100.00;100613.09;1780274;79;21033;-68
2022/10/13 05:20:51;;;;;;;10.72;6.20;;;;;;;6.78;100.00;100610.52;1786903;80;21110;-69
2022/10/13 05:23:19;;;;;;;14.03;6.40;;;;;;;6.81;100.00;100622.23;1762091;80;21690;-68
2022/10/13 05:25:45;;;;;;;15.40;6.65;;;;;;;6.82;100.00;100620.67;1790111;79;21045;-69
2022/10/13 05:28:13;;;;;;;13.03;6.83;;;;;;;6.83;100.00;100618.28;1758678;81;21129;-68
2022/10/13 05:30:40;;;;;;;;;;;;;;;6.78;100.00;100620.81;1788725;80;21010;-69
2022/10/13 05:33:06;;;;;;;15.20;7.30;;;;;;;6.76;100.00;100625.64;1787449;79;20131;-69
2022/10/13 05:35:33;;;;;;;12.47;6.85;;;;;;;6.68;100.00;100630.52;1752502;80;21041;-69
2022/10/13 05:38:00;;;;;;;18.12;8.18;;;;;;;6.76;100.00;100627.00;1774355;80;21130;-69
2022/10/13 05:40:27;;;;;;;13.72;7.55;;;;;;;6.87;100.00;100624.06;1765492;80;21091;-69
2022/10/13 05:42:55;;;;;;;14.87;7.58;;;;;;;6.91;100.00;100627.42;1764585;80;21905;-68
2022/10/13 05:45:22;;;;;;;15.38;8.35;;;;;;;6.92;100.00;100636.38;1764833;81;21037;-68
2022/10/13 05:47:48;;;;;;;11.08;6.50;;;;;;;6.91;100.00;100635.55;1727103;83;21099;-69
2022/10/13 05:50:15;;;;;;;;;;;;;;;6.96;100.00;100626.23;1735474;82;21089;-69
2022/10/13 05:52:42;;;;;;;16.97;6.70;;;;;;;7.03;100.00;100628.85;1741397;80;20153;-68
2022/10/13 05:55:09;;;;;;;16.50;6.60;;;;;;;7.02;100.00;100625.84;1769869;80;21081;-69
2022/10/13 05:57:41;;;;;;;12.45;7.20;;;;;;;7.08;100.00;100629.02;1762827;81;21106;-68
2022/10/13 06:00:11;;;;;;;18.60;8.10;;;;;;;7.14;100.00;100634.03;1764916;81;21061;-69
2022/10/13 06:02:48;;;;;;;14.93;7.30;;;;;;;7.15;100.00;100629.75;1764852;81;21094;-69
2022/10/13 06:05:18;;;;;;;15.85;7.42;;;;;;;7.17;100.00;100628.98;1769978;80;20985;-68
2022/10/13 06:07:46;;;;;;;14.13;7.17;;;;;;;7.23;100.00;100636.71;1744318;81;21852;-69
2022/10/13 06:10:14;;;;;;;14.13;7.33;;;;;;;7.32;100.00;100636.19;1729714;83;21539;-69
2022/10/13 06:12:40;;;;;;;18.20;8.20;;;;;;;7.38;100.00;100637.98;1730231;82;21049;-68
2022/10/13 06:15:08;;;;;;;14.15;7.60;;;;;;;7.41;100.00;100636.69;1703622;83;21600;-69
2022/10/13 06:17:37;;;;;;;16.30;7.15;;;;;;;7.46;100.00;100640.90;1721220;83;21044;-68
2022/10/13 06:20:05;;;;;;;20.10;7.53;;;;;;;7.54;100.00;100632.45;1728255;83;21049;-68
2022/10/13 06:22:33;;;;;;;14.60;7.08;;;;;;;7.63;100.00;100634.30;1728372;83;21172;-68
2022/10/13 06:25:02;;;;;;;12.93;7.47;;;;;;;7.66;100.00;100637.89;1728307;82;21038;-69
2022/10/13 06:27:30;;;;;;;15.58;8.05;;;;;;;7.66;100.00;100636.02;1740627;82;21121;-67
2022/10/13 06:29:56;;;;;;;13.72;7.28;;;;;;;7.72;100.00;100639.15;1741892;82;21021;-68
2022/10/13 06:32:23;;;;;;;16.45;6.53;;;;;;;7.83;100.00;100637.56;1741363;82;21121;-68
2022/10/13 06:34:49;;;;;;;15.53;6.83;;;;;;;7.95;100.00;100640.58;1768876;80;21042;-68
2022/10/13 06:37:16;;;;;;;15.30;6.97;;;;;;;8.05;100.00;100639.17;1758715;80;21610;-69
2022/10/13 06:39:42;;;;;;;16.80;7.30;;;;;;;8.08;100.00;100634.66;1760523;80;21101;-69
2022/10/13 06:42:09;;;;;;;13.62;6.87;;;;;;;8.11;100.00;100639.09;1816367;77;21076;-68
2022/10/13 06:44:40;;;;;;;13.10;6.97;;;;;;;8.13;100.00;100638.31;1794084;79;21055;-68
2022/10/13 06:47:07;;;;;;;14.28;6.35;;;;;;;8.18;100.00;100641.16;1760131;81;21624;-68
2022/10/13 06:49:34;;;;;;;17.05;6.55;;;;;;;8.28;100.00;100646.00;1787828;80;21042;-69
2022/10/13 06:52:00;;;;;;;12.20;6.37;;;;;;;8.39;100.00;100641.97;1760007;81;21137;-69
2022/10/13 06:54:27;;;;;;;14.00;7.30;;;;;;;8.47;100.00;100652.98;1786536;80;21018;-70
2022/10/13 06:56:55;;;;;;;14.23;6.80;;;;;;;8.49;100.00;100642.73;1758462;80;21591;-68
2022/10/13 06:59:22;;;;;;;;;;;;;;;8.53;100.00;100642.56;1789769;80;21484;-68
2022/10/13 07:01:48;;;;;;;13.85;7.55;;;;;;;8.58;100.00;100644.02;1788832;79;20151;-68
2022/10/13 07:04:15;;;;;;;19.95;7.67;;;;;;;8.58;100.00;100644.02;1794727;79;21037;-68
2022/10/13 07:06:44;;;;;;;17.82;9.15;;;;;;;8.57;100.00;100642.39;1791103;79;21100;-70
2022/10/13 07:09:10;;;;;;;17.30;8.30;;;;;;;8.59;100.00;100640.77;1797228;79;21046;-68
2022/10/13 07:11:37;;;;;;;17.17;7.33;;;;;;;8.61;100.00;100644.89;1794283;77;21056;-69
2022/10/13 07:14:05;;;;;;;16.57;7.05;;;;;;;8.67;100.00;100645.33;1789428;79;22135;-68
2022/10/13 07:16:32;;;;;;;15.90;7.12;;;;;;;8.74;100.00;100643.84;1788675;79;21081;-67
2022/10/13 07:19:01;;;;;;;15.28;7.95;;;;;;;8.82;100.00;100631.27;1790635;79;21022;-70
2022/10/13 07:21:27;;;;;;;17.52;7.85;;;;;;;8.86;100.00;100637.31;1790852;79;21061;-67
2022/10/13 07:23:53;;;;;;;17.25;6.75;;;;;;;8.90;100.00;100638.50;1812976;79;21552;-68
2022/10/13 07:26:21;;;;;;;14.60;6.72;;;;;;;8.95;100.00;100633.19;1787384;80;21085;-67
2022/10/13 07:28:47;;;;;;;12.90;7.00;;;;;;;9.00;100.00;100636.52;1778584;79;21042;-68
2022/10/13 07:31:17;;;;;;;13.10;7.15;;;;;;;9.12;100.00;100635.97;1785328;79;21552;-69
2022/10/13 07:33:46;;;;;;;13.43;7.00;;;;;;;9.30;100.00;100636.33;1787364;79;21538;-66
2022/10/13 07:36:14;;;;;;;15.48;7.10;;;;;;;9.40;100.00;100631.92;1790220;79;21054;-65
2022/10/13 07:38:40;;;;;;;;;;;;;;;9.39;100.00;100638.41;1788119;79;21061;-67
2022/10/13 07:41:08;;;;;;;14.95;7.22;;;;;;;9.46;100.00;100635.02;1786480;80;20123;-67
2022/10/13 07:43:34;;;;;;;16.32;6.92;;;;;;;9.49;100.00;100638.61;1762191;80;20981;-67
2022/10/13 07:46:05;;;;;;;14.05;7.58;;;;;;;9.64;100.00;100638.59;1761528;80;21024;-67
2022/10/13 07:48:32;;;;;;;17.27;8.28;;;;;;;9.77;100.00;100643.76;1776167;79;20986;-66
2022/10/13 07:51:06;;;;;;;19.23;9.18;;;;;;;9.85;100.00;100640.09;1787666;79;21125;-67
2022/10/13 07:53:34;;;;;;;17.02;9.75;;;;;;;9.81;100.00;100638.13;1788341;80;21491;-68
2022/10/13 07:56:02;;;;;;;15.32;7.67;;;;;;;9.87;100.00;100639.85;1787177;79;21089;-67
2022/10/13 07:58:28;;;;;;;21.27;7.87;;;;;;;9.89;100.00;100642.61;1786032;79;21526;-68
2022/10/13 08:00:58;;;;;;;14.87;6.92;;;;;;;9.91;100.00;100637.77;1786424;79;21045;-68
2022/10/13 08:03:25;;;;;;;16.02;7.15;;;;;;;9.99;100.00;100637.34;1786608;80;21038;-67
2022/10/13 08:05:52;;;;;;;12.68;6.42;;;;;;;10.03;100.00;100640.39;1786174;79;21069;-67
2022/10/13 08:08:20;;;;;;;14.33;7.55;;;;;;;9.99;100.00;100637.34;1786632;80;21572;-67
2022/10/13 08:10:47;;;;;;;11.80;6.15;;;;;;;10.05;100.00;100645.07;1786597;80;21085;-67
2022/10/13 08:13:14;;;;;;;15.55;6.87;;;;;;;10.16;100.00;100640.13;1787134;79;21569;-67
2022/10/13 08:15:41;;;;;;;14.33;6.80;;;;;;;10.30;100.00;100642.80;1788826;80;21073;-67
2022/10/13 08:18:10;;;;;;;18.60;7.33;;;;;;;10.41;100.00;100645.15;1785837;80;21619;-67
2022/10/13 08:20:42;;;;;;;14.23;7.62;;;;;;;10.40;100.00;100642.95;1775306;79;21056;-67
2022/10/13 08:23:26;;;;;;;14.25;7.15;;;;;;;10.39;100.00;100640.47;1779930;80;21228;-67
2022/10/13 08:25:53;;;;;;;18.67;8.58;;;;;;;10.36;100.00;100642.33;1786098;79;21524;-68
2022/10/13 08:28:24;;;;;;;17.55;9.48;;;;;;;10.34;100.00;100638.52;1785774;80;21121;-68
2022/10/13 08:30:52;;;;;;;18.15;9.00;;;;;;;10.38;100.00;100636.92;1786226;80;21651;-68
2022/10/13 08:33:19;;;;;;;14.65;8.20;;;;;;;10.33;100.00;100639.58;1785841;80;21046;-68
2022/10/13 08:35:46;;;;;;;24.98;12.05;;;;;;;10.30;100.00;100638.72;1781147;79;21566;-67
2022/10/13 08:38:13;;;;;;;24.23;11.00;;;;;;;10.30;100.00;100637.89;1770655;78;21103;-67
2022/10/13 08:40:39;;;;;;;18.30;9.38;;;;;;;10.38;100.00;100637.48;1755342;81;21049;-67
2022/10/13 08:43:07;;;;;;;;;;;;;;;10.57;100.00;100643.46;1757751;80;21958;-67
2022/10/13 08:45:35;;;;;;;17.02;9.10;;;;;;;10.64;100.00;100642.75;1768877;81;20110;-67
2022/10/13 08:48:10;;;;;;;22.70;10.65;;;;;;;10.54;100.00;100640.71;1768521;79;21063;-67
2022/10/13 08:50:40;;;;;;;21.48;11.12;;;;;;;10.63;100.00;100639.20;1767720;80;21087;-67
2022/10/13 08:53:30;;;;;;;19.98;10.45;;;;;;;10.75;100.00;100641.30;1765264;78;21652;-67
2022/10/13 08:56:23;;;;;;;18.48;8.53;;;;;;;10.88;100.00;100642.81;1762118;80;21079;-67
2022/10/13 08:58:53;;;;;;;17.40;7.75;;;;;;;11.05;100.00;100641.42;1765832;80;21790;-67
2022/10/13 09:01:32;;;;;;;18.05;8.95;;;;;;;11.25;100.00;100638.95;1776906;79;21583;-67
2022/10/13 09:04:26;;;;;;;14.78;8.03;;;;;;;11.30;100.00;100634.37;1764649;80;21043;-68
2022/10/13 09:07:04;;;;;;;16.97;7.60;;;;;;;11.40;100.00;100641.33;1779395;78;21106;-67
2022/10/13 09:09:32;;;;;;;18.92;9.13;;;;;;;11.49;100.00;100641.14;1776864;80;21035;-66
2022/10/13 09:11:58;;;;;;;23.52;11.28;;;;;;;11.61;100.00;100642.37;1748790;80;21066;-66
2022/10/13 09:14:31;;;;;;;18.05;8.25;;;;;;;11.74;100.00;100640.63;1751671;81;21068;-66
2022/10/13 09:17:22;;;;;;;19.05;7.97;;;;;;;11.82;100.00;100642.89;1786505;80;21675;-66
2022/10/13 09:20:17;;;;;;;15.90;6.90;;;;;;;11.91;100.00;100637.77;1789373;79;21059;-66
2022/10/13 09:23:00;;;;;;;14.23;7.20;;;;;;;12.00;100.00;100642.23;1740933;80;21136;-66
2022/10/13 09:25:26;;;;;;;13.58;7.05;;;;;;;12.06;100.00;100642.02;1715522;82;21126;-65
2022/10/13 09:27:59;;;;;;;;;;;;;;;12.12;100.00;100631.41;1779726;79;21071;-66
2022/10/13 09:30:42;;;;;;;13.32;6.28;;;;;;;12.15;100.00;100630.89;1770599;80;20141;-66
2022/10/13 09:33:14;;;;;;;16.97;7.15;;;;;;;12.19;100.00;100636.65;1745141;79;21424;-68
2022/10/13 09:35:45;;;;;;;12.70;6.22;;;;;;;12.23;100.00;100629.59;1768793;79;21514;-67
2022/10/13 09:38:20;;;;;;;15.98;6.87;;;;;;;12.30;100.00;100626.09;1764430;80;21074;-67
2022/10/13 09:41:10;;;;;;;15.95;6.25;;;;;;;12.34;100.00;100632.14;1771279;80;21110;-67
2022/10/13 09:43:49;;;;;;;14.43;6.53;;;;;;;12.29;100.00;100626.63;1755977;79;21101;-67
2022/10/13 09:46:56;;;;;;;10.80;5.55;;;;;;;12.28;100.00;100625.01;1791765;78;21120;-67
2022/10/13 09:49:40;;;;;;;12.78;6.00;;;;;;;12.38;100.00;100625.08;1782271;79;21022;-67
2022/10/13 09:52:14;;;;;;;14.30;6.08;;;;;;;12.57;100.00;100621.39;1763259;79;21695;-67
2022/10/13 09:54:54;;;;;;;14.10;5.87;;;;;;;12.66;100.00;100621.70;1765640;80;21014;-67
2022/10/13 09:57:35;;;;;;;14.75;5.20;;;;;;;12.74;100.00;100624.77;1764109;80;21596;-67
2022/10/13 10:00:21;;;;;;;10.60;5.53;;;;;;;12.88;100.00;100619.66;1770987;79;21014;-67
2022/10/13 10:02:56;;;;;;;15.18;7.05;;;;;;;12.97;100.00;100610.67;1770047;79;21046;-67
2022/10/13 10:05:40;;;;;;;13.70;6.22;;;;;;;13.04;100.00;100602.22;1770968;79;21037;-68
2022/10/13 10:08:45;;;;;;;14.95;6.60;;;;;;;13.13;100.00;100608.88;1770867;79;21061;-67
2022/10/13 10:11:18;;;;;;;19.85;6.70;;;;;;;13.20;100.00;100603.15;1763377;80;21139;-68
2022/10/13 10:13:45;;;;;;;14.00;6.35;;;;;;;13.29;100.00;100600.98;1762698;80;22055;-68
2022/10/13 10:16:29;;;;;;;14.07;6.83;;;;;;;13.34;100.00;100597.45;1762477;80;21117;-68
2022/10/13 10:19:05;;;;;;;13.50;6.45;;;;;;;13.34;100.00;100602.38;1771030;79;21010;-67
2022/10/13 10:21:39;;;;;;;16.42;7.20;;;;;;;13.31;100.00;100600.73;1771725;80;21023;-68
2022/10/13 10:24:47;;;;;;;18.40;6.25;;;;;;;13.21;100.00;100596.60;1766884;80;20998;-67
2022/10/13 10:27:29;;;;;;;12.30;6.08;;;;;;;13.07;100.00;100595.42;1764663;80;21600;-69
2022/10/13 10:30:07;;;;;;;16.25;6.58;;;;;;;12.97;100.00;100595.64;1767967;80;21005;-68
2022/10/13 10:32:47;;;;;;;13.75;6.80;;;;;;;12.90;100.00;100594.23;1748153;80;21069;-67
2022/10/13 10:35:25;;;;;;;15.05;6.55;;;;;;;12.99;100.00;100598.12;1768694;80;21043;-68
2022/10/13 10:38:06;;;;;;;11.48;6.05;;;;;;;13.07;100.00;100594.88;1768480;80;21141;-68
2022/10/13 10:41:02;;;;;;;12.73;6.33;;;;;;;13.02;100.00;100586.65;1759650;80;21521;-67
2022/10/13 10:43:52;;;;;;;15.58;6.28;;;;;;;12.97;100.00;100587.98;1783880;79;20979;-67
2022/10/13 10:46:24;;;;;;;17.15;5.67;;;;;;;13.03;100.00;100589.67;1781051;79;21045;-67
2022/10/13 10:48:56;;;;;;;13.40;5.60;;;;;;;13.14;100.00;100585.92;1788232;79;21078;-67
2022/10/13 10:51:25;;;;;;;14.07;6.12;;;;;;;13.10;100.00;100583.98;1750681;80;21079;-67
2022/10/13 10:54:14;;;;;;;13.03;5.67;;;;;;;13.07;100.00;100581.22;1752688;81;20993;-67
2022/10/13 10:56:48;;;;;;;13.35;5.53;;;;;;;13.13;100.00;100582.91;1753997;80;21035;-68
2022/10/13 10:59:54;;;;;;;11.57;5.37;;;;;;;13.24;100.00;100583.22;1717165;82;21053;-68
2022/10/13 11:02:41;;;;;;;12.75;5.17;;;;;;;13.29;100.00;100583.22;1768222;79;21574;-68
2022/10/13 11:05:07;;;;;;;12.00;5.40;;;;;;;13.37;100.00;100577.23;1767443;79;21078;-68
2022/10/13 11:07:46;;;;;;;11.73;4.90;;;;;;;13.41;100.00;100576.97;1767463;78;21077;-68
2022/10/13 11:10:19;;;;;;;11.40;4.50;;;;;;;13.41;100.00;100575.60;1769660;79;21000;-68
2022/10/13 11:12:55;;;;;;;12.58;5.17;;;;;;;13.39;100.00;100575.03;1771476;81;21502;-68
2022/10/13 11:15:42;;;;;;;11.50;4.00;;;;;;;13.42;100.00;100584.63;1770013;79;20987;-69
2022/10/13 11:18:57;;;;;;;7.90;3.60;;;;;;;13.46;100.00;100577.53;1767393;81;21062;-68
2022/10/13 11:21:25;;;;;;;9.58;3.85;;;;;;;13.49;100.00;100576.16;1762731;81;21083;-68
2022/10/13 11:23:52;;;;;;;10.18;4.25;;;;;;;13.54;100.00;100572.05;1735848;81;21380;-68
2022/10/13 11:26:27;;;;;;;;;;;;;;;13.64;100.00;100575.63;1766728;80;21158;-68
2022/10/13 11:28:54;;;;;;;9.98;3.62;;;;;;;13.71;100.00;100573.45;1765706;79;20141;-69
2022/10/13 11:31:33;;;;;;;9.05;3.80;;;;;;;13.68;100.00;100571.80;1766854;81;21120;-68
2022/10/13 11:34:00;;;;;;;10.60;4.35;;;;;;;13.72;100.00;100568.80;1759981;81;21409;-68
2022/10/13 11:36:49;;;;;;;12.98;4.60;;;;;;;13.73;100.00;100567.72;1772458;79;21699;-66
2022/10/13 11:39:46;;;;;;;9.28;4.20;;;;;;;13.72;100.00;100571.53;1785411;79;21059;-69
2022/10/13 11:42:44;;;;;;;13.58;4.33;;;;;;;13.62;100.00;100568.79;1714701;81;21088;-69
2022/10/13 11:45:47;;;;;;;9.10;4.00;;;;;;;13.52;100.00;100573.70;1786642;80;21045;-68